sensor_id;sensor_type;location;lat;lon;timestamp;P1;durP1;ratioP1;P2;durP2;ratioP2
74102;SDS011;62853;46.166;3.640;2024-02-21T00:02:19;10.95;;;5.10;;
74102;SDS011;62853;46.166;3.640;2024-02-21T00:04:45;12.35;;;4.97;;
74102;SDS011;62853;46.166;3.640;2024-02-21T00:07:10;12.32;;;5.25;;
74102;SDS011;62853;46.166;3.640;2024-02-21T00:09:35;12.85;;;5.57;;
74102;SDS011;62853;46.166;3.640;2024-02-21T00:12:01;12.25;;;5.00;;
74102;SDS011;62853;46.166;3.640;2024-02-21T00:14:26;11.25;;;5.20;;
74102;SDS011;62853;46.166;3.640;2024-02-21T00:16:51;9.35;;;5.10;;
74102;SDS011;62853;46.166;3.640;2024-02-21T00:19:17;11.50;;;6.43;;
74102;SDS011;62853;46.166;3.640;2024-02-21T00:21:42;15.50;;;6.80;;
74102;SDS011;62853;46.166;3.640;2024-02-21T00:24:07;13.88;;;6.95;;
74102;SDS011;62853;46.166;3.640;2024-02-21T00:26:33;12.88;;;6.60;;
74102;SDS011;62853;46.166;3.640;2024-02-21T00:28:58;14.55;;;6.35;;
74102;SDS011;62853;46.166;3.640;2024-02-21T00:31:23;15.43;;;6.82;;
74102;SDS011;62853;46.166;3.640;2024-02-21T00:33:49;12.57;;;7.10;;
74102;SDS011;62853;46.166;3.640;2024-02-21T00:36:15;16.60;;;7.18;;
74102;SDS011;62853;46.166;3.640;2024-02-21T00:38:41;13.32;;;7.43;;
74102;SDS011;62853;46.166;3.640;2024-02-21T00:41:06;12.85;;;7.15;;
74102;SDS011;62853;46.166;3.640;2024-02-21T00:43:31;15.32;;;6.65;;
74102;SDS011;62853;46.166;3.640;2024-02-21T00:45:57;18.42;;;7.53;;
74102;SDS011;62853;46.166;3.640;2024-02-21T00:48:22;9.90;;;6.65;;
74102;SDS011;62853;46.166;3.640;2024-02-21T00:50:47;13.65;;;7.60;;
74102;SDS011;62853;46.166;3.640;2024-02-21T00:53:13;16.00;;;7.13;;
74102;SDS011;62853;46.166;3.640;2024-02-21T00:55:38;13.32;;;6.78;;
74102;SDS011;62853;46.166;3.640;2024-02-21T00:58:05;10.77;;;4.93;;
74102;SDS011;62853;46.166;3.640;2024-02-21T01:00:30;8.80;;;4.95;;
74102;SDS011;62853;46.166;3.640;2024-02-21T01:02:56;10.68;;;4.60;;
74102;SDS011;62853;46.166;3.640;2024-02-21T01:05:21;10.70;;;4.30;;
74102;SDS011;62853;46.166;3.640;2024-02-21T01:07:47;11.77;;;4.57;;
74102;SDS011;62853;46.166;3.640;2024-02-21T01:10:13;12.90;;;4.32;;
74102;SDS011;62853;46.166;3.640;2024-02-21T01:12:38;10.68;;;5.05;;
74102;SDS011;62853;46.166;3.640;2024-02-21T01:15:03;9.90;;;4.40;;
74102;SDS011;62853;46.166;3.640;2024-02-21T01:17:29;11.15;;;4.40;;
74102;SDS011;62853;46.166;3.640;2024-02-21T01:19:55;10.32;;;4.50;;
74102;SDS011;62853;46.166;3.640;2024-02-21T01:22:20;13.57;;;4.72;;
74102;SDS011;62853;46.166;3.640;2024-02-21T01:24:45;12.57;;;4.40;;
74102;SDS011;62853;46.166;3.640;2024-02-21T01:27:11;13.77;;;6.32;;
74102;SDS011;62853;46.166;3.640;2024-02-21T01:29:36;11.27;;;5.90;;
74102;SDS011;62853;46.166;3.640;2024-02-21T01:32:02;11.60;;;4.35;;
74102;SDS011;62853;46.166;3.640;2024-02-21T01:34:27;12.05;;;4.85;;
74102;SDS011;62853;46.166;3.640;2024-02-21T01:36:52;12.15;;;5.03;;
74102;SDS011;62853;46.166;3.640;2024-02-21T01:39:18;10.15;;;4.75;;
74102;SDS011;62853;46.166;3.640;2024-02-21T01:41:43;11.05;;;4.32;;
74102;SDS011;62853;46.166;3.640;2024-02-21T01:44:09;11.10;;;4.53;;
74102;SDS011;62853;46.166;3.640;2024-02-21T01:46:34;10.63;;;4.22;;
74102;SDS011;62853;46.166;3.640;2024-02-21T01:49:00;10.20;;;4.57;;
74102;SDS011;62853;46.166;3.640;2024-02-21T01:51:26;9.75;;;4.75;;
74102;SDS011;62853;46.166;3.640;2024-02-21T01:53:52;11.73;;;5.18;;
74102;SDS011;62853;46.166;3.640;2024-02-21T01:56:19;10.32;;;5.80;;
74102;SDS011;62853;46.166;3.640;2024-02-21T01:58:45;11.77;;;5.57;;
74102;SDS011;62853;46.166;3.640;2024-02-21T02:01:11;10.38;;;5.78;;
74102;SDS011;62853;46.166;3.640;2024-02-21T02:03:37;12.07;;;5.80;;
74102;SDS011;62853;46.166;3.640;2024-02-21T02:06:04;12.85;;;5.93;;
74102;SDS011;62853;46.166;3.640;2024-02-21T02:08:30;11.85;;;6.45;;
74102;SDS011;62853;46.166;3.640;2024-02-21T02:10:56;10.30;;;5.22;;
74102;SDS011;62853;46.166;3.640;2024-02-21T02:13:22;12.30;;;5.90;;
74102;SDS011;62853;46.166;3.640;2024-02-21T02:15:48;10.60;;;5.65;;
74102;SDS011;62853;46.166;3.640;2024-02-21T02:18:15;11.52;;;5.78;;
74102;SDS011;62853;46.166;3.640;2024-02-21T02:20:41;11.40;;;5.82;;
74102;SDS011;62853;46.166;3.640;2024-02-21T02:23:07;10.15;;;6.35;;
74102;SDS011;62853;46.166;3.640;2024-02-21T02:25:39;12.15;;;6.13;;
74102;SDS011;62853;46.166;3.640;2024-02-21T02:28:05;10.48;;;5.90;;
74102;SDS011;62853;46.166;3.640;2024-02-21T02:30:32;10.40;;;6.05;;
74102;SDS011;62853;46.166;3.640;2024-02-21T02:32:59;12.38;;;6.00;;
74102;SDS011;62853;46.166;3.640;2024-02-21T02:35:24;11.50;;;5.80;;
74102;SDS011;62853;46.166;3.640;2024-02-21T02:37:50;9.35;;;5.68;;
74102;SDS011;62853;46.166;3.640;2024-02-21T02:40:15;10.57;;;6.40;;
74102;SDS011;62853;46.166;3.640;2024-02-21T02:42:41;10.60;;;5.82;;
74102;SDS011;62853;46.166;3.640;2024-02-21T02:45:06;11.65;;;6.20;;
74102;SDS011;62853;46.166;3.640;2024-02-21T02:47:32;8.85;;;5.95;;
74102;SDS011;62853;46.166;3.640;2024-02-21T02:49:59;9.25;;;4.60;;
74102;SDS011;62853;46.166;3.640;2024-02-21T02:52:25;7.78;;;3.65;;
74102;SDS011;62853;46.166;3.640;2024-02-21T02:54:50;10.00;;;4.68;;
74102;SDS011;62853;46.166;3.640;2024-02-21T02:57:17;7.50;;;3.60;;
74102;SDS011;62853;46.166;3.640;2024-02-21T02:59:47;9.55;;;4.28;;
74102;SDS011;62853;46.166;3.640;2024-02-21T03:02:15;9.80;;;3.88;;
74102;SDS011;62853;46.166;3.640;2024-02-21T03:04:41;8.02;;;4.13;;
74102;SDS011;62853;46.166;3.640;2024-02-21T03:07:07;7.55;;;3.60;;
74102;SDS011;62853;46.166;3.640;2024-02-21T03:09:32;6.30;;;3.80;;
74102;SDS011;62853;46.166;3.640;2024-02-21T03:11:57;9.05;;;3.75;;
74102;SDS011;62853;46.166;3.640;2024-02-21T03:14:28;8.90;;;4.65;;
74102;SDS011;62853;46.166;3.640;2024-02-21T03:16:53;8.35;;;3.88;;
74102;SDS011;62853;46.166;3.640;2024-02-21T03:19:19;7.95;;;4.50;;
74102;SDS011;62853;46.166;3.640;2024-02-21T03:21:44;6.93;;;4.40;;
74102;SDS011;62853;46.166;3.640;2024-02-21T03:24:09;7.38;;;4.07;;
74102;SDS011;62853;46.166;3.640;2024-02-21T03:26:35;8.63;;;3.63;;
74102;SDS011;62853;46.166;3.640;2024-02-21T03:29:00;8.38;;;3.60;;
74102;SDS011;62853;46.166;3.640;2024-02-21T03:31:26;8.57;;;3.60;;
74102;SDS011;62853;46.166;3.640;2024-02-21T03:33:51;7.18;;;3.38;;
74102;SDS011;62853;46.166;3.640;2024-02-21T03:36:16;7.78;;;3.40;;
74102;SDS011;62853;46.166;3.640;2024-02-21T03:38:42;7.90;;;3.55;;
74102;SDS011;62853;46.166;3.640;2024-02-21T03:41:07;7.80;;;3.58;;
74102;SDS011;62853;46.166;3.640;2024-02-21T03:43:32;7.85;;;3.40;;
74102;SDS011;62853;46.166;3.640;2024-02-21T03:45:58;6.57;;;3.60;;
74102;SDS011;62853;46.166;3.640;2024-02-21T03:48:23;8.73;;;5.13;;
74102;SDS011;62853;46.166;3.640;2024-02-21T03:50:48;10.32;;;5.00;;
74102;SDS011;62853;46.166;3.640;2024-02-21T03:53:14;8.25;;;4.38;;
74102;SDS011;62853;46.166;3.640;2024-02-21T03:55:39;6.43;;;3.78;;
74102;SDS011;62853;46.166;3.640;2024-02-21T03:58:04;8.63;;;4.15;;
74102;SDS011;62853;46.166;3.640;2024-02-21T04:00:30;10.23;;;5.07;;
74102;SDS011;62853;46.166;3.640;2024-02-21T04:02:55;9.10;;;4.70;;
74102;SDS011;62853;46.166;3.640;2024-02-21T04:05:21;10.15;;;4.95;;
74102;SDS011;62853;46.166;3.640;2024-02-21T04:07:46;8.63;;;4.93;;
74102;SDS011;62853;46.166;3.640;2024-02-21T04:10:12;11.10;;;4.75;;
74102;SDS011;62853;46.166;3.640;2024-02-21T04:12:37;10.70;;;5.10;;
74102;SDS011;62853;46.166;3.640;2024-02-21T04:15:03;9.60;;;5.13;;
74102;SDS011;62853;46.166;3.640;2024-02-21T04:17:29;9.85;;;4.97;;
74102;SDS011;62853;46.166;3.640;2024-02-21T04:20:00;8.95;;;4.65;;
74102;SDS011;62853;46.166;3.640;2024-02-21T04:22:30;9.70;;;5.47;;
74102;SDS011;62853;46.166;3.640;2024-02-21T04:24:55;9.85;;;5.13;;
74102;SDS011;62853;46.166;3.640;2024-02-21T04:27:21;8.70;;;4.88;;
74102;SDS011;62853;46.166;3.640;2024-02-21T04:29:46;14.57;;;7.25;;
74102;SDS011;62853;46.166;3.640;2024-02-21T04:32:11;13.75;;;7.82;;
74102;SDS011;62853;46.166;3.640;2024-02-21T04:34:37;14.55;;;7.78;;
74102;SDS011;62853;46.166;3.640;2024-02-21T04:37:02;10.32;;;5.55;;
74102;SDS011;62853;46.166;3.640;2024-02-21T04:39:27;14.93;;;6.43;;
74102;SDS011;62853;46.166;3.640;2024-02-21T04:41:53;9.15;;;4.80;;
74102;SDS011;62853;46.166;3.640;2024-02-21T04:44:18;13.82;;;6.13;;
74102;SDS011;62853;46.166;3.640;2024-02-21T04:46:47;11.98;;;5.78;;
74102;SDS011;62853;46.166;3.640;2024-02-21T04:49:12;10.40;;;5.07;;
74102;SDS011;62853;46.166;3.640;2024-02-21T04:51:39;11.07;;;5.40;;
74102;SDS011;62853;46.166;3.640;2024-02-21T04:54:05;11.45;;;5.45;;
74102;SDS011;62853;46.166;3.640;2024-02-21T04:56:30;12.00;;;5.65;;
74102;SDS011;62853;46.166;3.640;2024-02-21T04:58:56;11.15;;;5.85;;
74102;SDS011;62853;46.166;3.640;2024-02-21T05:01:21;11.70;;;5.60;;
74102;SDS011;62853;46.166;3.640;2024-02-21T05:03:47;12.63;;;7.32;;
74102;SDS011;62853;46.166;3.640;2024-02-21T05:06:12;14.52;;;7.72;;
74102;SDS011;62853;46.166;3.640;2024-02-21T05:08:37;13.05;;;7.97;;
74102;SDS011;62853;46.166;3.640;2024-02-21T05:11:03;12.30;;;6.00;;
74102;SDS011;62853;46.166;3.640;2024-02-21T05:13:28;10.25;;;5.50;;
74102;SDS011;62853;46.166;3.640;2024-02-21T05:15:54;11.75;;;5.88;;
74102;SDS011;62853;46.166;3.640;2024-02-21T05:18:19;12.35;;;6.15;;
74102;SDS011;62853;46.166;3.640;2024-02-21T05:20:45;13.10;;;6.15;;
74102;SDS011;62853;46.166;3.640;2024-02-21T05:23:11;13.15;;;6.03;;
74102;SDS011;62853;46.166;3.640;2024-02-21T05:25:37;13.52;;;5.82;;
74102;SDS011;62853;46.166;3.640;2024-02-21T05:28:02;12.05;;;5.78;;
74102;SDS011;62853;46.166;3.640;2024-02-21T05:30:28;11.75;;;6.22;;
74102;SDS011;62853;46.166;3.640;2024-02-21T05:32:54;10.90;;;5.53;;
74102;SDS011;62853;46.166;3.640;2024-02-21T05:35:24;11.88;;;5.85;;
74102;SDS011;62853;46.166;3.640;2024-02-21T05:37:50;10.40;;;6.35;;
74102;SDS011;62853;46.166;3.640;2024-02-21T05:40:17;10.07;;;5.28;;
74102;SDS011;62853;46.166;3.640;2024-02-21T05:42:43;11.98;;;5.80;;
74102;SDS011;62853;46.166;3.640;2024-02-21T05:45:08;13.75;;;7.28;;
74102;SDS011;62853;46.166;3.640;2024-02-21T05:47:34;12.00;;;7.65;;
74102;SDS011;62853;46.166;3.640;2024-02-21T05:49:59;7.47;;;5.18;;
74102;SDS011;62853;46.166;3.640;2024-02-21T05:52:25;13.95;;;6.50;;
74102;SDS011;62853;46.166;3.640;2024-02-21T05:54:50;10.60;;;5.57;;
74102;SDS011;62853;46.166;3.640;2024-02-21T05:57:16;9.57;;;5.55;;
74102;SDS011;62853;46.166;3.640;2024-02-21T05:59:43;10.77;;;5.57;;
74102;SDS011;62853;46.166;3.640;2024-02-21T06:02:08;10.57;;;5.18;;
74102;SDS011;62853;46.166;3.640;2024-02-21T06:04:34;9.23;;;5.15;;
74102;SDS011;62853;46.166;3.640;2024-02-21T06:07:00;12.48;;;6.50;;
74102;SDS011;62853;46.166;3.640;2024-02-21T06:09:26;12.27;;;6.72;;
74102;SDS011;62853;46.166;3.640;2024-02-21T06:11:52;11.88;;;5.75;;
74102;SDS011;62853;46.166;3.640;2024-02-21T06:14:17;10.38;;;5.85;;
74102;SDS011;62853;46.166;3.640;2024-02-21T06:16:43;13.02;;;6.03;;
74102;SDS011;62853;46.166;3.640;2024-02-21T06:19:09;11.38;;;6.18;;
74102;SDS011;62853;46.166;3.640;2024-02-21T06:21:34;11.13;;;5.40;;
74102;SDS011;62853;46.166;3.640;2024-02-21T06:24:00;11.82;;;5.88;;
74102;SDS011;62853;46.166;3.640;2024-02-21T06:26:25;10.27;;;5.75;;
74102;SDS011;62853;46.166;3.640;2024-02-21T06:28:51;10.18;;;5.93;;
74102;SDS011;62853;46.166;3.640;2024-02-21T06:31:16;13.07;;;6.90;;
74102;SDS011;62853;46.166;3.640;2024-02-21T06:33:42;13.88;;;8.32;;
74102;SDS011;62853;46.166;3.640;2024-02-21T06:36:08;15.07;;;7.75;;
74102;SDS011;62853;46.166;3.640;2024-02-21T06:38:33;9.85;;;5.65;;
74102;SDS011;62853;46.166;3.640;2024-02-21T06:40:59;11.10;;;6.32;;
74102;SDS011;62853;46.166;3.640;2024-02-21T06:43:25;12.38;;;6.32;;
74102;SDS011;62853;46.166;3.640;2024-02-21T06:45:51;10.68;;;5.80;;
74102;SDS011;62853;46.166;3.640;2024-02-21T06:48:17;10.50;;;5.85;;
74102;SDS011;62853;46.166;3.640;2024-02-21T06:50:43;10.70;;;5.90;;
74102;SDS011;62853;46.166;3.640;2024-02-21T06:53:09;14.45;;;6.70;;
74102;SDS011;62853;46.166;3.640;2024-02-21T06:55:34;13.18;;;6.13;;
74102;SDS011;62853;46.166;3.640;2024-02-21T06:58:00;9.73;;;5.72;;
74102;SDS011;62853;46.166;3.640;2024-02-21T07:00:27;12.38;;;7.97;;
74102;SDS011;62853;46.166;3.640;2024-02-21T07:02:53;11.32;;;8.05;;
74102;SDS011;62853;46.166;3.640;2024-02-21T07:05:18;14.73;;;6.50;;
74102;SDS011;62853;46.166;3.640;2024-02-21T07:07:44;12.63;;;6.60;;
74102;SDS011;62853;46.166;3.640;2024-02-21T07:10:09;12.82;;;6.45;;
74102;SDS011;62853;46.166;3.640;2024-02-21T07:12:35;14.57;;;6.50;;
74102;SDS011;62853;46.166;3.640;2024-02-21T07:15:03;11.57;;;6.53;;
74102;SDS011;62853;46.166;3.640;2024-02-21T07:17:29;10.57;;;6.05;;
74102;SDS011;62853;46.166;3.640;2024-02-21T07:19:55;12.77;;;7.50;;
74102;SDS011;62853;46.166;3.640;2024-02-21T07:22:22;9.88;;;6.72;;
74102;SDS011;62853;46.166;3.640;2024-02-21T07:24:47;12.05;;;8.30;;
74102;SDS011;62853;46.166;3.640;2024-02-21T07:27:14;13.23;;;8.00;;
74102;SDS011;62853;46.166;3.640;2024-02-21T07:29:40;13.40;;;8.32;;
74102;SDS011;62853;46.166;3.640;2024-02-21T07:32:05;10.02;;;6.05;;
74102;SDS011;62853;46.166;3.640;2024-02-21T07:34:31;12.52;;;6.40;;
74102;SDS011;62853;46.166;3.640;2024-02-21T07:36:57;11.95;;;6.07;;
74102;SDS011;62853;46.166;3.640;2024-02-21T07:39:22;12.05;;;6.22;;
74102;SDS011;62853;46.166;3.640;2024-02-21T07:41:48;11.70;;;5.75;;
74102;SDS011;62853;46.166;3.640;2024-02-21T07:44:14;10.60;;;5.47;;
74102;SDS011;62853;46.166;3.640;2024-02-21T07:46:40;10.70;;;6.30;;
74102;SDS011;62853;46.166;3.640;2024-02-21T07:49:05;10.07;;;5.72;;
74102;SDS011;62853;46.166;3.640;2024-02-21T07:51:31;10.13;;;5.78;;
74102;SDS011;62853;46.166;3.640;2024-02-21T07:53:56;12.25;;;7.55;;
74102;SDS011;62853;46.166;3.640;2024-02-21T07:56:21;11.60;;;7.30;;
74102;SDS011;62853;46.166;3.640;2024-02-21T07:58:47;11.77;;;7.10;;
74102;SDS011;62853;46.166;3.640;2024-02-21T08:01:17;12.30;;;7.30;;
74102;SDS011;62853;46.166;3.640;2024-02-21T08:03:44;10.63;;;7.70;;
74102;SDS011;62853;46.166;3.640;2024-02-21T08:06:11;9.20;;;7.18;;
74102;SDS011;62853;46.166;3.640;2024-02-21T08:08:37;10.32;;;7.03;;
74102;SDS011;62853;46.166;3.640;2024-02-21T08:11:03;9.77;;;6.80;;
74102;SDS011;62853;46.166;3.640;2024-02-21T08:13:28;10.20;;;6.47;;
74102;SDS011;62853;46.166;3.640;2024-02-21T08:15:54;7.40;;;6.30;;
74102;SDS011;62853;46.166;3.640;2024-02-21T08:18:19;7.90;;;6.30;;
74102;SDS011;62853;46.166;3.640;2024-02-21T08:20:45;10.93;;;6.47;;
74102;SDS011;62853;46.166;3.640;2024-02-21T08:23:10;9.20;;;6.28;;
74102;SDS011;62853;46.166;3.640;2024-02-21T08:25:35;8.55;;;6.78;;
74102;SDS011;62853;46.166;3.640;2024-02-21T08:28:01;8.80;;;6.55;;
74102;SDS011;62853;46.166;3.640;2024-02-21T08:30:27;11.32;;;6.82;;
74102;SDS011;62853;46.166;3.640;2024-02-21T08:32:52;8.68;;;6.50;;
74102;SDS011;62853;46.166;3.640;2024-02-21T08:35:19;7.72;;;5.85;;
74102;SDS011;62853;46.166;3.640;2024-02-21T08:37:47;8.13;;;5.97;;
74102;SDS011;62853;46.166;3.640;2024-02-21T08:40:13;10.00;;;6.90;;
74102;SDS011;62853;46.166;3.640;2024-02-21T08:42:38;7.93;;;5.93;;
74102;SDS011;62853;46.166;3.640;2024-02-21T08:45:04;8.48;;;5.53;;
74102;SDS011;62853;46.166;3.640;2024-02-21T08:47:30;7.13;;;4.20;;
74102;SDS011;62853;46.166;3.640;2024-02-21T08:49:56;7.53;;;4.85;;
74102;SDS011;62853;46.166;3.640;2024-02-21T08:52:21;7.88;;;4.70;;
74102;SDS011;62853;46.166;3.640;2024-02-21T08:54:46;7.55;;;4.70;;
74102;SDS011;62853;46.166;3.640;2024-02-21T08:57:12;7.78;;;4.75;;
74102;SDS011;62853;46.166;3.640;2024-02-21T08:59:39;7.97;;;4.68;;
74102;SDS011;62853;46.166;3.640;2024-02-21T09:02:04;10.02;;;4.82;;
74102;SDS011;62853;46.166;3.640;2024-02-21T09:04:32;6.32;;;4.60;;
74102;SDS011;62853;46.166;3.640;2024-02-21T09:06:57;7.50;;;5.10;;
74102;SDS011;62853;46.166;3.640;2024-02-21T09:09:22;8.27;;;4.60;;
74102;SDS011;62853;46.166;3.640;2024-02-21T09:11:48;7.07;;;5.13;;
74102;SDS011;62853;46.166;3.640;2024-02-21T09:14:13;10.55;;;6.80;;
74102;SDS011;62853;46.166;3.640;2024-02-21T09:16:39;8.40;;;6.47;;
74102;SDS011;62853;46.166;3.640;2024-02-21T09:19:04;10.13;;;6.65;;
74102;SDS011;62853;46.166;3.640;2024-02-21T09:21:30;8.77;;;5.40;;
74102;SDS011;62853;46.166;3.640;2024-02-21T09:23:55;6.72;;;4.47;;
74102;SDS011;62853;46.166;3.640;2024-02-21T09:26:20;7.68;;;5.25;;
74102;SDS011;62853;46.166;3.640;2024-02-21T09:28:46;7.18;;;5.25;;
74102;SDS011;62853;46.166;3.640;2024-02-21T09:31:11;8.45;;;5.60;;
74102;SDS011;62853;46.166;3.640;2024-02-21T09:33:36;8.40;;;5.32;;
74102;SDS011;62853;46.166;3.640;2024-02-21T09:36:02;6.68;;;5.03;;
74102;SDS011;62853;46.166;3.640;2024-02-21T09:38:30;7.18;;;4.82;;
74102;SDS011;62853;46.166;3.640;2024-02-21T09:40:58;9.57;;;6.20;;
74102;SDS011;62853;46.166;3.640;2024-02-21T09:43:28;11.57;;;6.50;;
74102;SDS011;62853;46.166;3.640;2024-02-21T09:45:54;8.80;;;5.32;;
74102;SDS011;62853;46.166;3.640;2024-02-21T09:51:12;9.98;;;4.70;;
74102;SDS011;62853;46.166;3.640;2024-02-21T09:53:40;7.82;;;4.65;;
74102;SDS011;62853;46.166;3.640;2024-02-21T09:56:10;8.30;;;4.50;;
74102;SDS011;62853;46.166;3.640;2024-02-21T09:58:36;7.45;;;4.70;;
74102;SDS011;62853;46.166;3.640;2024-02-21T10:01:01;8.77;;;4.43;;
74102;SDS011;62853;46.166;3.640;2024-02-21T10:03:29;6.00;;;4.07;;
74102;SDS011;62853;46.166;3.640;2024-02-21T10:05:54;7.30;;;4.97;;
74102;SDS011;62853;46.166;3.640;2024-02-21T10:08:19;10.82;;;5.53;;
74102;SDS011;62853;46.166;3.640;2024-02-21T10:10:45;9.02;;;5.00;;
74102;SDS011;62853;46.166;3.640;2024-02-21T10:13:21;8.40;;;4.93;;
74102;SDS011;62853;46.166;3.640;2024-02-21T10:16:01;7.32;;;4.28;;
74102;SDS011;62853;46.166;3.640;2024-02-21T10:18:31;9.35;;;4.38;;
74102;SDS011;62853;46.166;3.640;2024-02-21T10:21:00;7.05;;;3.67;;
74102;SDS011;62853;46.166;3.640;2024-02-21T10:23:26;8.48;;;4.20;;
74102;SDS011;62853;46.166;3.640;2024-02-21T10:25:51;8.45;;;3.95;;
74102;SDS011;62853;46.166;3.640;2024-02-21T10:28:16;8.13;;;3.88;;
74102;SDS011;62853;46.166;3.640;2024-02-21T10:30:52;8.45;;;3.80;;
74102;SDS011;62853;46.166;3.640;2024-02-21T10:33:17;9.88;;;5.07;;
74102;SDS011;62853;46.166;3.640;2024-02-21T10:35:45;7.55;;;5.57;;
74102;SDS011;62853;46.166;3.640;2024-02-21T10:38:12;6.82;;;3.90;;
74102;SDS011;62853;46.166;3.640;2024-02-21T10:40:37;7.10;;;3.70;;
74102;SDS011;62853;46.166;3.640;2024-02-21T10:43:03;9.43;;;4.25;;
74102;SDS011;62853;46.166;3.640;2024-02-21T10:45:36;8.02;;;4.20;;
74102;SDS011;62853;46.166;3.640;2024-02-21T10:48:06;7.38;;;3.70;;
74102;SDS011;62853;46.166;3.640;2024-02-21T10:50:56;6.30;;;3.58;;
74102;SDS011;62853;46.166;3.640;2024-02-21T10:53:34;9.05;;;3.67;;
74102;SDS011;62853;46.166;3.640;2024-02-21T10:59:02;9.05;;;4.38;;
74102;SDS011;62853;46.166;3.640;2024-02-21T11:01:29;8.35;;;4.90;;
74102;SDS011;62853;46.166;3.640;2024-02-21T11:04:10;6.97;;;3.53;;
74102;SDS011;62853;46.166;3.640;2024-02-21T11:06:39;6.88;;;4.10;;
74102;SDS011;62853;46.166;3.640;2024-02-21T11:09:06;6.97;;;3.90;;
74102;SDS011;62853;46.166;3.640;2024-02-21T11:11:38;8.35;;;3.78;;
74102;SDS011;62853;46.166;3.640;2024-02-21T11:16:37;10.57;;;3.78;;
74102;SDS011;62853;46.166;3.640;2024-02-21T11:19:26;8.80;;;3.53;;
74102;SDS011;62853;46.166;3.640;2024-02-21T11:21:51;6.57;;;3.05;;
74102;SDS011;62853;46.166;3.640;2024-02-21T11:26:54;7.70;;;4.40;;
74102;SDS011;62853;46.166;3.640;2024-02-21T11:29:23;6.85;;;4.65;;
74102;SDS011;62853;46.166;3.640;2024-02-21T11:31:50;6.22;;;3.17;;
74102;SDS011;62853;46.166;3.640;2024-02-21T11:34:19;5.20;;;3.20;;
74102;SDS011;62853;46.166;3.640;2024-02-21T11:36:47;6.07;;;3.17;;
74102;SDS011;62853;46.166;3.640;2024-02-21T11:39:18;6.32;;;3.53;;
74102;SDS011;62853;46.166;3.640;2024-02-21T11:41:45;7.00;;;3.15;;
74102;SDS011;62853;46.166;3.640;2024-02-21T11:44:12;6.15;;;3.10;;
74102;SDS011;62853;46.166;3.640;2024-02-21T11:46:38;6.70;;;3.20;;
74102;SDS011;62853;46.166;3.640;2024-02-21T11:49:03;8.75;;;3.60;;
74102;SDS011;62853;46.166;3.640;2024-02-21T11:51:29;6.53;;;4.25;;
74102;SDS011;62853;46.166;3.640;2024-02-21T11:53:54;7.63;;;4.43;;
74102;SDS011;62853;46.166;3.640;2024-02-21T11:56:20;6.45;;;3.22;;
74102;SDS011;62853;46.166;3.640;2024-02-21T11:58:49;7.30;;;3.40;;
74102;SDS011;62853;46.166;3.640;2024-02-21T12:01:14;6.88;;;4.03;;
74102;SDS011;62853;46.166;3.640;2024-02-21T12:03:40;7.68;;;3.33;;
74102;SDS011;62853;46.166;3.640;2024-02-21T12:06:07;7.63;;;3.25;;
74102;SDS011;62853;46.166;3.640;2024-02-21T12:08:42;6.90;;;3.72;;
74102;SDS011;62853;46.166;3.640;2024-02-21T12:11:17;7.63;;;3.45;;
74102;SDS011;62853;46.166;3.640;2024-02-21T12:13:47;8.65;;;3.78;;
74102;SDS011;62853;46.166;3.640;2024-02-21T12:16:15;5.93;;;3.33;;
74102;SDS011;62853;46.166;3.640;2024-02-21T12:18:43;4.32;;;2.85;;
74102;SDS011;62853;46.166;3.640;2024-02-21T12:21:09;7.68;;;4.22;;
74102;SDS011;62853;46.166;3.640;2024-02-21T12:23:36;7.68;;;4.40;;
74102;SDS011;62853;46.166;3.640;2024-02-21T12:26:03;7.65;;;3.75;;
74102;SDS011;62853;46.166;3.640;2024-02-21T12:28:30;6.53;;;3.10;;
74102;SDS011;62853;46.166;3.640;2024-02-21T12:30:55;7.22;;;3.30;;
74102;SDS011;62853;46.166;3.640;2024-02-21T12:33:21;7.22;;;3.50;;
74102;SDS011;62853;46.166;3.640;2024-02-21T12:35:47;7.90;;;3.95;;
74102;SDS011;62853;46.166;3.640;2024-02-21T12:38:14;9.20;;;3.40;;
74102;SDS011;62853;46.166;3.640;2024-02-21T12:40:39;4.97;;;2.95;;
74102;SDS011;62853;46.166;3.640;2024-02-21T12:43:05;5.95;;;2.72;;
74102;SDS011;62853;46.166;3.640;2024-02-21T12:45:30;7.35;;;3.15;;
74102;SDS011;62853;46.166;3.640;2024-02-21T12:47:56;7.45;;;2.97;;
74102;SDS011;62853;46.166;3.640;2024-02-21T12:50:21;6.95;;;3.05;;
74102;SDS011;62853;46.166;3.640;2024-02-21T12:52:47;8.80;;;4.03;;
74102;SDS011;62853;46.166;3.640;2024-02-21T12:55:14;7.05;;;3.45;;
74102;SDS011;62853;46.166;3.640;2024-02-21T12:57:41;5.85;;;3.10;;
74102;SDS011;62853;46.166;3.640;2024-02-21T13:00:07;5.05;;;2.70;;
74102;SDS011;62853;46.166;3.640;2024-02-21T13:02:34;5.70;;;2.70;;
74102;SDS011;62853;46.166;3.640;2024-02-21T13:05:00;6.57;;;3.30;;
74102;SDS011;62853;46.166;3.640;2024-02-21T13:07:27;4.72;;;2.97;;
74102;SDS011;62853;46.166;3.640;2024-02-21T13:09:53;5.93;;;3.03;;
74102;SDS011;62853;46.166;3.640;2024-02-21T13:12:19;7.07;;;3.38;;
74102;SDS011;62853;46.166;3.640;2024-02-21T13:14:45;4.93;;;3.40;;
74102;SDS011;62853;46.166;3.640;2024-02-21T13:17:10;11.18;;;3.55;;
74102;SDS011;62853;46.166;3.640;2024-02-21T13:19:36;6.18;;;2.80;;
74102;SDS011;62853;46.166;3.640;2024-02-21T13:22:01;6.32;;;2.53;;
74102;SDS011;62853;46.166;3.640;2024-02-21T13:24:27;7.00;;;2.80;;
74102;SDS011;62853;46.166;3.640;2024-02-21T13:26:53;5.88;;;2.40;;
74102;SDS011;62853;46.166;3.640;2024-02-21T13:29:18;5.05;;;2.45;;
74102;SDS011;62853;46.166;3.640;2024-02-21T13:31:44;6.43;;;2.33;;
74102;SDS011;62853;46.166;3.640;2024-02-21T13:34:09;6.85;;;2.28;;
74102;SDS011;62853;46.166;3.640;2024-02-21T13:36:34;5.97;;;3.10;;
74102;SDS011;62853;46.166;3.640;2024-02-21T13:39:00;5.38;;;2.92;;
74102;SDS011;62853;46.166;3.640;2024-02-21T13:41:25;5.03;;;2.55;;
74102;SDS011;62853;46.166;3.640;2024-02-21T13:43:51;4.25;;;2.10;;
74102;SDS011;62853;46.166;3.640;2024-02-21T13:46:17;5.25;;;2.13;;
74102;SDS011;62853;46.166;3.640;2024-02-21T13:48:42;4.38;;;2.13;;
74102;SDS011;62853;46.166;3.640;2024-02-21T13:51:07;4.95;;;2.38;;
74102;SDS011;62853;46.166;3.640;2024-02-21T13:53:33;6.90;;;2.40;;
74102;SDS011;62853;46.166;3.640;2024-02-21T13:55:59;3.53;;;2.20;;
74102;SDS011;62853;46.166;3.640;2024-02-21T13:58:25;4.00;;;2.30;;
74102;SDS011;62853;46.166;3.640;2024-02-21T14:00:51;6.55;;;2.10;;
74102;SDS011;62853;46.166;3.640;2024-02-21T14:03:17;4.93;;;2.50;;
74102;SDS011;62853;46.166;3.640;2024-02-21T14:05:44;3.60;;;2.15;;
74102;SDS011;62853;46.166;3.640;2024-02-21T14:08:09;3.40;;;2.05;;
74102;SDS011;62853;46.166;3.640;2024-02-21T14:10:34;5.38;;;2.30;;
74102;SDS011;62853;46.166;3.640;2024-02-21T14:13:00;7.25;;;2.50;;
74102;SDS011;62853;46.166;3.640;2024-02-21T14:15:25;5.00;;;2.85;;
74102;SDS011;62853;46.166;3.640;2024-02-21T14:17:51;6.25;;;2.92;;
74102;SDS011;62853;46.166;3.640;2024-02-21T14:20:16;5.65;;;2.60;;
74102;SDS011;62853;46.166;3.640;2024-02-21T14:22:41;2.15;;;1.73;;
74102;SDS011;62853;46.166;3.640;2024-02-21T14:25:07;5.00;;;2.47;;
74102;SDS011;62853;46.166;3.640;2024-02-21T14:27:33;4.50;;;2.22;;
74102;SDS011;62853;46.166;3.640;2024-02-21T14:30:00;6.65;;;2.38;;
74102;SDS011;62853;46.166;3.640;2024-02-21T14:32:27;4.85;;;2.40;;
74102;SDS011;62853;46.166;3.640;2024-02-21T14:34:52;4.03;;;2.13;;
74102;SDS011;62853;46.166;3.640;2024-02-21T14:37:18;4.00;;;2.40;;
74102;SDS011;62853;46.166;3.640;2024-02-21T14:39:43;4.80;;;2.20;;
74102;SDS011;62853;46.166;3.640;2024-02-21T14:42:08;4.43;;;2.88;;
74102;SDS011;62853;46.166;3.640;2024-02-21T14:44:36;5.85;;;3.15;;
74102;SDS011;62853;46.166;3.640;2024-02-21T14:47:02;5.35;;;2.97;;